Haines Airport
PAHN : now visible

Airfield :











YOU CAN JOIN US ON...

 
LOGIN :

Register | Disclaimer

   EN    FR    IT 

 









Legend :    VFR   Marginal VFR   IFR   Intensive IFR   Very Intensive IFR
Visi :
Ceiling :
>= 8 km
>= 3000ft
5 to 8 km
1000 to 3000 ft
1500m to 5 km
500 to 1000 ft
800 to 1500m
200 to 500 ft
< 800m
< 200 ft
Symbols :   Thunderstorms  Fog  Heavy snow  Heavy precipitations  Wind > 20 kt






- Airport Elevation : 15 ft
- IATA code : HNS


PAHN - Haines

CURRENT METAR :
  • 260254Z AUTO 11008G17KT 10SM FEW017 OVC070 12/06 A2993 RMK SLP139 T01170056 53007 TSNO VIA AUTODIAL

EXPIRED METARs :
  • 260154Z AUTO 11009G18KT 070V130 10SM OVC075 13/06 A2992 RMK SLP134 T01280056 TSNO VIA AUTODIAL
  • 260054Z AUTO 12010G19KT 10SM OVC075 13/06 A2992 RMK SLP133 T01330056 TSNO VIA AUTODIAL

TAF PAHN
Valid from the 26 at 00:00 until the 27 at 00:00 UTC


252336Z 2600/2624 11012G20KT P6SM VCSH SCT015 OVC040
FM260500 10005KT P6SM SCT015 BKN050
FM260800 10004KT P6SM BKN015 BKN060
FM261600 12010G15KT P6SM SCT020 BKN070 AMD LTD TO CLD VIS AND WIND
PAZA FIR / North America



MET'MAP, your aeronautical weather chart ! - Copyright ORBIFLY December 2007 - Disclaimer

ORBIFLY MET'MAP TEAM :

Programming & Development : Alexandra Zaïnal
Concept & original design : Baudouin d'Aumeries
Assistance for programming : Marc-Olivier Méhu
Technical & hardware support : Manuel Goepfert

Contact : metmap@orbifly.com




SOURCES & CREDITS :

   NOAA       Earth
Advisory